Heat Index SAI AWOS Graphical Display Untitled Document
Phillipsburg Municipal , Kansas (PHG)
000
11:18
18/07/23
00
N/A
N/A
30.12
N/A
1907
70(F), 21(C)
69(F), 21(C)
70 F
100%
CLR
10
N/A
N/A
N/A
11:18 zulu Wind Calm, Altimeter 30.12
METAR KPHG 231118Z AUTO 00000KT 10SM CLR 21/21 A3012 A02
METAR:
FAA Disclaimer--Advisory Use ONLY, not for flight info-- 10/06/2008: Welcome to the Phillipsburg Municipal , Kansas (PHG) Graphical AWOS weather display. Airport 785-543-5424, AWOS: 119.125 AWOS Phone Number: 785/543-8960
INFO:
Wind Direction:
Wind Speed:
Wind Gust:
Wind Variable:
Altimeter:
Dens Alt:
Elev:
Temp:
Dwpt:
Wind Chill
Rel Humidity:
Ceiling:
Visibility:
Prsnt Wea:
PCPN:
Remarks:
How to read the WebPage